sensor_id;sensor_type;location;lat;lon;timestamp;pressure;altitude;pressure_sealevel;temperature;humidity
73101;BME280;61288;53.446;-2.266;2023-04-08T00:01:44;102140.13;;;3.86;80.81
73101;BME280;61288;53.446;-2.266;2023-04-08T00:04:10;102134.13;;;3.83;80.50
73101;BME280;61288;53.446;-2.266;2023-04-08T00:06:36;102133.22;;;3.79;80.08
73101;BME280;61288;53.446;-2.266;2023-04-08T00:09:03;102129.75;;;3.74;80.87
73101;BME280;61288;53.446;-2.266;2023-04-08T00:11:28;102128.00;;;3.70;80.54
73101;BME280;61288;53.446;-2.266;2023-04-08T00:13:55;102132.22;;;3.66;83.27
73101;BME280;61288;53.446;-2.266;2023-04-08T00:16:21;102126.16;;;3.59;81.08
73101;BME280;61288;53.446;-2.266;2023-04-08T00:18:47;102128.72;;;3.58;81.58
73101;BME280;61288;53.446;-2.266;2023-04-08T00:21:13;102131.22;;;3.53;81.08
73101;BME280;61288;53.446;-2.266;2023-04-08T00:23:42;102128.66;;;3.52;81.46
73101;BME280;61288;53.446;-2.266;2023-04-08T00:26:08;102127.72;;;3.46;81.37
73101;BME280;61288;53.446;-2.266;2023-04-08T00:28:34;102135.38;;;3.43;82.58
73101;BME280;61288;53.446;-2.266;2023-04-08T00:30:59;102130.22;;;3.39;81.88
73101;BME280;61288;53.446;-2.266;2023-04-08T00:33:25;102133.56;;;3.36;82.18
73101;BME280;61288;53.446;-2.266;2023-04-08T00:35:51;102122.41;;;3.31;82.02
73101;BME280;61288;53.446;-2.266;2023-04-08T00:38:17;102137.78;;;3.31;82.68
73101;BME280;61288;53.446;-2.266;2023-04-08T00:40:42;102127.50;;;3.28;82.25
73101;BME280;61288;53.446;-2.266;2023-04-08T00:43:08;102125.72;;;3.22;82.29
73101;BME280;61288;53.446;-2.266;2023-04-08T00:45:33;102133.31;;;3.16;82.98
73101;BME280;61288;53.446;-2.266;2023-04-08T00:48:01;102135.84;;;3.14;84.16
73101;BME280;61288;53.446;-2.266;2023-04-08T00:50:27;102129.00;;;3.13;83.76
73101;BME280;61288;53.446;-2.266;2023-04-08T00:52:52;102128.09;;;3.08;83.50
73101;BME280;61288;53.446;-2.266;2023-04-08T00:55:18;102138.28;;;3.03;84.08
73101;BME280;61288;53.446;-2.266;2023-04-08T00:57:44;102135.69;;;3.02;85.77
73101;BME280;61288;53.446;-2.266;2023-04-08T01:00:11;102139.09;;;3.01;84.54
73101;BME280;61288;53.446;-2.266;2023-04-08T01:02:44;102139.94;;;3.00;84.69
73101;BME280;61288;53.446;-2.266;2023-04-08T01:05:16;102140.78;;;2.99;84.60
73101;BME280;61288;53.446;-2.266;2023-04-08T01:07:48;102140.72;;;2.97;85.65
73101;BME280;61288;53.446;-2.266;2023-04-08T01:10:17;102141.59;;;2.98;85.24
73101;BME280;61288;53.446;-2.266;2023-04-08T01:12:51;102141.56;;;2.96;85.41
73101;BME280;61288;53.446;-2.266;2023-04-08T01:15:18;102140.72;;;2.96;86.02
73101;BME280;61288;53.446;-2.266;2023-04-08T01:17:46;102137.28;;;2.94;85.90
73101;BME280;61288;53.446;-2.266;2023-04-08T01:20:12;102139.84;;;2.94;87.33
73101;BME280;61288;53.446;-2.266;2023-04-08T01:25:36;102141.53;;;2.92;86.94
73101;BME280;61288;53.446;-2.266;2023-04-08T01:28:14;102141.53;;;2.92;86.24
73101;BME280;61288;53.446;-2.266;2023-04-08T01:30:41;102142.31;;;2.89;86.92
73101;BME280;61288;53.446;-2.266;2023-04-08T01:33:11;102142.31;;;2.89;87.29
73101;BME280;61288;53.446;-2.266;2023-04-08T01:35:37;102148.34;;;2.91;88.06
73101;BME280;61288;53.446;-2.266;2023-04-08T01:38:06;102142.31;;;2.89;87.72
73101;BME280;61288;53.446;-2.266;2023-04-08T01:40:34;102146.59;;;2.88;87.42
73101;BME280;61288;53.446;-2.266;2023-04-08T01:43:00;102150.88;;;2.91;88.54
73101;BME280;61288;53.446;-2.266;2023-04-08T01:45:28;102150.09;;;2.94;88.17
73101;BME280;61288;53.446;-2.266;2023-04-08T01:47:55;102157.00;;;3.01;89.17
73101;BME280;61288;53.446;-2.266;2023-04-08T01:50:21;102159.66;;;3.07;90.43
73101;BME280;61288;53.446;-2.266;2023-04-08T01:52:49;102155.41;;;3.09;90.26
73101;BME280;61288;53.446;-2.266;2023-04-08T01:55:18;102152.91;;;3.12;90.60
73101;BME280;61288;53.446;-2.266;2023-04-08T01:57:47;102157.13;;;3.10;89.55
73101;BME280;61288;53.446;-2.266;2023-04-08T02:00:16;102158.84;;;3.11;90.78
73101;BME280;61288;53.446;-2.266;2023-04-08T02:02:42;102157.97;;;3.08;90.62
73101;BME280;61288;53.446;-2.266;2023-04-08T02:05:08;102156.22;;;3.05;90.43
73101;BME280;61288;53.446;-2.266;2023-04-08T02:07:34;102157.88;;;3.01;90.23
73101;BME280;61288;53.446;-2.266;2023-04-08T02:10:01;102156.13;;;2.99;90.60
73101;BME280;61288;53.446;-2.266;2023-04-08T02:12:26;102151.81;;;2.96;90.82
73101;BME280;61288;53.446;-2.266;2023-04-08T02:14:53;102150.09;;;2.94;90.48
73101;BME280;61288;53.446;-2.266;2023-04-08T02:17:40;102151.81;;;2.95;90.80
73101;BME280;61288;53.446;-2.266;2023-04-08T02:20:29;102165.47;;;2.95;90.30
73101;BME280;61288;53.446;-2.266;2023-04-08T02:25:28;102154.91;;;3.35;94.21
73101;BME280;61288;53.446;-2.266;2023-04-08T02:27:55;102152.50;;;3.46;94.25
73101;BME280;61288;53.446;-2.266;2023-04-08T02:30:22;102156.00;;;3.53;93.79
73101;BME280;61288;53.446;-2.266;2023-04-08T02:32:53;102162.88;;;3.58;93.37
73101;BME280;61288;53.446;-2.266;2023-04-08T02:35:18;102157.75;;;3.58;92.31
73101;BME280;61288;53.446;-2.266;2023-04-08T02:37:47;102161.94;;;3.50;90.74
73101;BME280;61288;53.446;-2.266;2023-04-08T02:42:47;102165.16;;;3.35;91.04
73101;BME280;61288;53.446;-2.266;2023-04-08T02:45:15;102182.16;;;3.27;91.17
73101;BME280;61288;53.446;-2.266;2023-04-08T02:47:41;102174.38;;;3.21;91.58
73101;BME280;61288;53.446;-2.266;2023-04-08T02:50:07;102179.47;;;3.17;92.16
73101;BME280;61288;53.446;-2.266;2023-04-08T02:52:33;102177.75;;;3.16;92.48
73101;BME280;61288;53.446;-2.266;2023-04-08T02:54:58;102178.63;;;3.20;92.43
73101;BME280;61288;53.446;-2.266;2023-04-08T02:57:23;102187.25;;;3.27;93.47
73101;BME280;61288;53.446;-2.266;2023-04-08T02:59:49;102189.06;;;3.32;92.92
73101;BME280;61288;53.446;-2.266;2023-04-08T03:02:17;102175.50;;;3.41;93.85
73101;BME280;61288;53.446;-2.266;2023-04-08T03:04:43;102189.13;;;3.39;92.53
73101;BME280;61288;53.446;-2.266;2023-04-08T03:07:09;102183.94;;;3.34;91.57
73101;BME280;61288;53.446;-2.266;2023-04-08T03:09:35;102191.50;;;3.26;91.14
73101;BME280;61288;53.446;-2.266;2023-04-08T03:12:00;102195.69;;;3.18;92.79
73101;BME280;61288;53.446;-2.266;2023-04-08T03:14:26;102194.72;;;3.10;92.78
73101;BME280;61288;53.446;-2.266;2023-04-08T03:16:51;102194.63;;;3.05;91.81
73101;BME280;61288;53.446;-2.266;2023-04-08T03:19:17;102202.25;;;3.00;91.31
73101;BME280;61288;53.446;-2.266;2023-04-08T03:21:42;102200.41;;;2.93;91.42
73101;BME280;61288;53.446;-2.266;2023-04-08T03:24:08;102197.75;;;2.85;91.72
73101;BME280;61288;53.446;-2.266;2023-04-08T03:26:33;102196.81;;;2.80;91.33
73101;BME280;61288;53.446;-2.266;2023-04-08T03:28:59;102196.72;;;2.74;91.25
73101;BME280;61288;53.446;-2.266;2023-04-08T03:31:25;102204.34;;;2.71;92.09
73101;BME280;61288;53.446;-2.266;2023-04-08T03:33:50;102200.91;;;2.69;93.36
73101;BME280;61288;53.446;-2.266;2023-04-08T03:36:16;102199.97;;;2.64;92.86
73101;BME280;61288;53.446;-2.266;2023-04-08T03:38:43;102203.31;;;2.59;93.05
73101;BME280;61288;53.446;-2.266;2023-04-08T03:41:08;102202.44;;;2.57;92.57
73101;BME280;61288;53.446;-2.266;2023-04-08T03:43:34;102201.50;;;2.54;94.11
73101;BME280;61288;53.446;-2.266;2023-04-08T03:45:59;102203.16;;;2.50;93.86
73101;BME280;61288;53.446;-2.266;2023-04-08T03:48:25;102194.59;;;2.50;93.61
73101;BME280;61288;53.446;-2.266;2023-04-08T03:50:52;102200.63;;;2.52;93.64
73101;BME280;61288;53.446;-2.266;2023-04-08T03:53:18;102202.38;;;2.54;93.41
73101;BME280;61288;53.446;-2.266;2023-04-08T03:55:43;102203.22;;;2.55;93.74
73101;BME280;61288;53.446;-2.266;2023-04-08T03:58:09;102197.25;;;2.54;93.49
73101;BME280;61288;53.446;-2.266;2023-04-08T04:00:34;102194.66;;;2.53;93.73
73101;BME280;61288;53.446;-2.266;2023-04-08T04:03:00;102188.75;;;2.55;94.74
73101;BME280;61288;53.446;-2.266;2023-04-08T04:05:26;102194.69;;;2.54;94.44
73101;BME280;61288;53.446;-2.266;2023-04-08T04:07:51;102204.06;;;2.54;94.66
73101;BME280;61288;53.446;-2.266;2023-04-08T04:10:17;102202.38;;;2.54;94.60
73101;BME280;61288;53.446;-2.266;2023-04-08T04:12:43;102207.44;;;2.51;95.21
73101;BME280;61288;53.446;-2.266;2023-04-08T04:15:09;102201.34;;;2.46;94.91
73101;BME280;61288;53.446;-2.266;2023-04-08T04:17:35;102203.81;;;2.40;94.07
73101;BME280;61288;53.446;-2.266;2023-04-08T04:20:03;102214.13;;;2.44;97.87
73101;BME280;61288;53.446;-2.266;2023-04-08T04:22:29;102206.41;;;2.41;97.09
73101;BME280;61288;53.446;-2.266;2023-04-08T04:24:57;102211.47;;;2.38;96.35
73101;BME280;61288;53.446;-2.266;2023-04-08T04:27:24;102212.31;;;2.39;97.53
73101;BME280;61288;53.446;-2.266;2023-04-08T04:29:49;102213.94;;;2.32;96.01
73101;BME280;61288;53.446;-2.266;2023-04-08T04:35:12;102221.44;;;2.24;95.73
73101;BME280;61288;53.446;-2.266;2023-04-08T04:37:37;102222.25;;;2.22;95.52
73101;BME280;61288;53.446;-2.266;2023-04-08T04:40:04;102222.19;;;2.17;95.05
73101;BME280;61288;53.446;-2.266;2023-04-08T04:42:30;102217.06;;;2.17;96.45
73101;BME280;61288;53.446;-2.266;2023-04-08T04:44:56;102218.66;;;2.12;95.91
73101;BME280;61288;53.446;-2.266;2023-04-08T04:47:22;102218.59;;;2.09;95.28
73101;BME280;61288;53.446;-2.266;2023-04-08T04:49:47;102221.91;;;2.03;95.43
73101;BME280;61288;53.446;-2.266;2023-04-08T04:52:13;102224.41;;;2.00;96.92
73101;BME280;61288;53.446;-2.266;2023-04-08T04:54:38;102220.03;;;1.96;95.82
73101;BME280;61288;53.446;-2.266;2023-04-08T04:57:04;102218.31;;;1.93;96.00
73101;BME280;61288;53.446;-2.266;2023-04-08T04:59:29;102219.97;;;1.91;96.03
73101;BME280;61288;53.446;-2.266;2023-04-08T05:01:55;102220.81;;;1.90;95.84
73101;BME280;61288;53.446;-2.266;2023-04-08T05:04:25;102229.25;;;1.86;95.37
73101;BME280;61288;53.446;-2.266;2023-04-08T05:06:53;102234.25;;;1.81;94.78
73101;BME280;61288;53.446;-2.266;2023-04-08T05:09:20;102223.97;;;1.78;95.29
73101;BME280;61288;53.446;-2.266;2023-04-08T05:11:45;102225.56;;;1.73;94.88
73101;BME280;61288;53.446;-2.266;2023-04-08T05:14:11;102233.22;;;1.73;95.45
73101;BME280;61288;53.446;-2.266;2023-04-08T05:16:36;102233.09;;;1.67;94.28
73101;BME280;61288;53.446;-2.266;2023-04-08T05:19:03;102229.69;;;1.66;95.25
73101;BME280;61288;53.446;-2.266;2023-04-08T05:21:28;102242.41;;;1.65;95.16
73101;BME280;61288;53.446;-2.266;2023-04-08T05:23:54;102238.88;;;1.58;94.50
73101;BME280;61288;53.446;-2.266;2023-04-08T05:26:19;102256.72;;;1.56;94.84
73101;BME280;61288;53.446;-2.266;2023-04-08T05:28:46;102246.44;;;1.53;94.54
73101;BME280;61288;53.446;-2.266;2023-04-08T05:31:14;102251.44;;;1.49;94.46
73101;BME280;61288;53.446;-2.266;2023-04-08T05:33:40;102257.38;;;1.48;95.17
73101;BME280;61288;53.446;-2.266;2023-04-08T05:36:06;102258.28;;;1.50;95.43
73101;BME280;61288;53.446;-2.266;2023-04-08T05:38:31;102265.97;;;1.50;94.67
73101;BME280;61288;53.446;-2.266;2023-04-08T05:40:56;102259.19;;;1.52;95.06
73101;BME280;61288;53.446;-2.266;2023-04-08T05:43:22;102264.31;;;1.53;95.31
73101;BME280;61288;53.446;-2.266;2023-04-08T05:45:47;102256.69;;;1.55;95.28
73101;BME280;61288;53.446;-2.266;2023-04-08T05:48:13;102260.97;;;1.56;95.03
73101;BME280;61288;53.446;-2.266;2023-04-08T05:50:38;102261.94;;;1.61;95.70
73101;BME280;61288;53.446;-2.266;2023-04-08T05:53:04;102261.16;;;1.65;95.56
73101;BME280;61288;53.446;-2.266;2023-04-08T05:55:29;102262.06;;;1.66;94.99
73101;BME280;61288;53.446;-2.266;2023-04-08T05:57:55;102266.34;;;1.68;94.94
73101;BME280;61288;53.446;-2.266;2023-04-08T06:00:20;102260.44;;;1.71;95.20
73101;BME280;61288;53.446;-2.266;2023-04-08T06:02:46;102266.41;;;1.71;94.88
73101;BME280;61288;53.446;-2.266;2023-04-08T06:05:12;102275.78;;;1.71;94.57
73101;BME280;61288;53.446;-2.266;2023-04-08T06:07:37;102269.00;;;1.73;94.70
73101;BME280;61288;53.446;-2.266;2023-04-08T06:10:03;102284.47;;;1.79;95.24
73101;BME280;61288;53.446;-2.266;2023-04-08T06:12:30;102288.03;;;1.86;95.08
73101;BME280;61288;53.446;-2.266;2023-04-08T06:14:56;102285.63;;;1.94;95.32
73101;BME280;61288;53.446;-2.266;2023-04-08T06:17:21;102280.72;;;2.05;95.50
73101;BME280;61288;53.446;-2.266;2023-04-08T06:19:47;102287.75;;;2.15;95.33
73101;BME280;61288;53.446;-2.266;2023-04-08T06:22:13;102290.50;;;2.24;95.18
73101;BME280;61288;53.446;-2.266;2023-04-08T06:24:38;102288.19;;;2.37;95.16
73101;BME280;61288;53.446;-2.266;2023-04-08T06:27:04;102291.88;;;2.51;94.72
73101;BME280;61288;53.446;-2.266;2023-04-08T06:29:30;102293.91;;;2.69;94.74
73101;BME280;61288;53.446;-2.266;2023-04-08T06:31:57;102290.78;;;2.86;94.60
73101;BME280;61288;53.446;-2.266;2023-04-08T06:34:23;102295.41;;;3.07;93.66
73101;BME280;61288;53.446;-2.266;2023-04-08T06:36:48;102301.88;;;3.39;93.50
73101;BME280;61288;53.446;-2.266;2023-04-08T06:39:14;102305.72;;;3.67;91.56
73101;BME280;61288;53.446;-2.266;2023-04-08T06:41:41;102308.63;;;3.92;90.67
73101;BME280;61288;53.446;-2.266;2023-04-08T06:44:07;102304.78;;;4.28;89.07
73101;BME280;61288;53.446;-2.266;2023-04-08T06:46:33;102309.50;;;4.70;87.54
73101;BME280;61288;53.446;-2.266;2023-04-08T06:48:58;102307.22;;;5.01;86.34
73101;BME280;61288;53.446;-2.266;2023-04-08T06:51:24;102307.41;;;5.26;84.36
73101;BME280;61288;53.446;-2.266;2023-04-08T06:53:50;102310.03;;;5.30;83.21
73101;BME280;61288;53.446;-2.266;2023-04-08T06:56:15;102310.91;;;5.37;83.39
73101;BME280;61288;53.446;-2.266;2023-04-08T06:58:41;102310.91;;;5.37;83.41
73101;BME280;61288;53.446;-2.266;2023-04-08T07:01:06;102315.22;;;5.40;83.18
73101;BME280;61288;53.446;-2.266;2023-04-08T07:03:32;102322.13;;;5.44;83.13
73101;BME280;61288;53.446;-2.266;2023-04-08T07:05:57;102318.66;;;5.43;83.71
73101;BME280;61288;53.446;-2.266;2023-04-08T07:08:23;102325.63;;;5.55;83.27
73101;BME280;61288;53.446;-2.266;2023-04-08T07:10:48;102321.44;;;5.70;83.23
73101;BME280;61288;53.446;-2.266;2023-04-08T07:13:16;102319.75;;;5.78;82.02
73101;BME280;61288;53.446;-2.266;2023-04-08T07:15:41;102323.22;;;5.82;82.15
73101;BME280;61288;53.446;-2.266;2023-04-08T07:18:07;102324.09;;;5.87;82.12
73101;BME280;61288;53.446;-2.266;2023-04-08T07:20:32;102326.69;;;5.95;81.96
73101;BME280;61288;53.446;-2.266;2023-04-08T07:23:02;102318.16;;;6.00;81.68
73101;BME280;61288;53.446;-2.266;2023-04-08T07:25:28;102322.50;;;6.11;81.34
73101;BME280;61288;53.446;-2.266;2023-04-08T07:27:55;102328.53;;;6.13;80.84
73101;BME280;61288;53.446;-2.266;2023-04-08T07:30:21;102334.56;;;6.18;80.83
73101;BME280;61288;53.446;-2.266;2023-04-08T07:32:46;102330.28;;;6.18;80.63
73101;BME280;61288;53.446;-2.266;2023-04-08T07:35:12;102338.03;;;6.23;79.81
73101;BME280;61288;53.446;-2.266;2023-04-08T07:37:37;102337.19;;;6.36;80.23
73101;BME280;61288;53.446;-2.266;2023-04-08T07:40:03;102334.72;;;6.58;79.55
73101;BME280;61288;53.446;-2.266;2023-04-08T07:42:29;102333.84;;;6.69;78.93
73101;BME280;61288;53.446;-2.266;2023-04-08T07:44:54;102332.16;;;6.75;78.54
73101;BME280;61288;53.446;-2.266;2023-04-08T07:47:19;102338.19;;;6.81;78.65
73101;BME280;61288;53.446;-2.266;2023-04-08T07:49:45;102337.31;;;6.85;77.80
73101;BME280;61288;53.446;-2.266;2023-04-08T07:52:12;102344.22;;;6.87;77.96
73101;BME280;61288;53.446;-2.266;2023-04-08T07:54:37;102344.19;;;6.89;77.78
73101;BME280;61288;53.446;-2.266;2023-04-08T07:57:03;102346.78;;;6.93;77.59
73101;BME280;61288;53.446;-2.266;2023-04-08T07:59:28;102351.09;;;7.01;77.60
73101;BME280;61288;53.446;-2.266;2023-04-08T08:01:54;102341.63;;;7.12;77.61
73101;BME280;61288;53.446;-2.266;2023-04-08T08:04:19;102352.81;;;7.23;77.03
73101;BME280;61288;53.446;-2.266;2023-04-08T08:06:45;102351.94;;;7.43;76.26
73101;BME280;61288;53.446;-2.266;2023-04-08T08:09:12;102350.22;;;7.58;76.13
73101;BME280;61288;53.446;-2.266;2023-04-08T08:11:37;102353.63;;;7.72;76.45
73101;BME280;61288;53.446;-2.266;2023-04-08T08:14:03;102357.03;;;7.91;75.01
73101;BME280;61288;53.446;-2.266;2023-04-08T08:16:29;102359.56;;;8.05;74.33
73101;BME280;61288;53.446;-2.266;2023-04-08T08:18:56;102359.50;;;8.32;73.87
73101;BME280;61288;53.446;-2.266;2023-04-08T08:21:21;102346.41;;;8.67;73.29
73101;BME280;61288;53.446;-2.266;2023-04-08T08:23:47;102363.28;;;9.21;72.51
73101;BME280;61288;53.446;-2.266;2023-04-08T08:26:12;102363.22;;;10.15;69.69
73101;BME280;61288;53.446;-2.266;2023-04-08T08:28:38;102359.31;;;11.11;65.20
73101;BME280;61288;53.446;-2.266;2023-04-08T08:31:04;102365.56;;;11.98;61.94
73101;BME280;61288;53.446;-2.266;2023-04-08T08:33:33;102356.59;;;12.56;59.06
73101;BME280;61288;53.446;-2.266;2023-04-08T08:36:00;102365.03;;;13.04;58.28
73101;BME280;61288;53.446;-2.266;2023-04-08T08:38:26;102364.75;;;13.16;57.37
73101;BME280;61288;53.446;-2.266;2023-04-08T08:40:57;102368.16;;;13.54;57.41
73101;BME280;61288;53.446;-2.266;2023-04-08T08:43:27;102368.13;;;13.88;55.79
73101;BME280;61288;53.446;-2.266;2023-04-08T08:45:53;102370.88;;;14.14;55.11
73101;BME280;61288;53.446;-2.266;2023-04-08T08:48:19;102360.47;;;14.13;52.57
73101;BME280;61288;53.446;-2.266;2023-04-08T08:50:46;102363.25;;;14.37;52.44
73101;BME280;61288;53.446;-2.266;2023-04-08T08:53:11;102364.50;;;14.53;51.58
73101;BME280;61288;53.446;-2.266;2023-04-08T08:55:37;102365.16;;;14.32;53.10
73101;BME280;61288;53.446;-2.266;2023-04-08T08:58:04;102362.88;;;14.21;52.90
73101;BME280;61288;53.446;-2.266;2023-04-08T09:00:39;102366.19;;;14.54;53.05
73101;BME280;61288;53.446;-2.266;2023-04-08T09:08:36;102365.91;;;15.71;50.50
73101;BME280;61288;53.446;-2.266;2023-04-08T09:11:12;102360.00;;;16.15;46.63
73101;BME280;61288;53.446;-2.266;2023-04-08T09:13:38;102358.56;;;16.30;47.78
73101;BME280;61288;53.446;-2.266;2023-04-08T09:16:05;102361.16;;;16.30;48.48
73101;BME280;61288;53.446;-2.266;2023-04-08T09:18:33;102358.69;;;16.50;46.46
73101;BME280;61288;53.446;-2.266;2023-04-08T09:21:01;102362.69;;;16.36;46.51
73101;BME280;61288;53.446;-2.266;2023-04-08T09:23:47;102365.09;;;16.19;47.58
73101;BME280;61288;53.446;-2.266;2023-04-08T09:26:15;102364.81;;;16.02;44.52
73101;BME280;61288;53.446;-2.266;2023-04-08T09:28:42;102362.75;;;16.11;44.56
73101;BME280;61288;53.446;-2.266;2023-04-08T09:31:22;102355.06;;;16.06;44.93
73101;BME280;61288;53.446;-2.266;2023-04-08T09:33:53;102358.22;;;16.16;45.20
73101;BME280;61288;53.446;-2.266;2023-04-08T09:36:20;102360.03;;;15.39;44.50
73101;BME280;61288;53.446;-2.266;2023-04-08T09:38:46;102363.66;;;15.60;43.71
73101;BME280;61288;53.446;-2.266;2023-04-08T09:41:14;102365.78;;;16.24;46.06
73101;BME280;61288;53.446;-2.266;2023-04-08T09:43:46;102357.25;;;16.85;44.14
73101;BME280;61288;53.446;-2.266;2023-04-08T09:46:17;102360.75;;;17.29;41.02
73101;BME280;61288;53.446;-2.266;2023-04-08T09:48:55;102351.00;;;17.53;40.76
73101;BME280;61288;53.446;-2.266;2023-04-08T09:51:23;102354.41;;;18.33;40.60
73101;BME280;61288;53.446;-2.266;2023-04-08T09:53:55;102357.84;;;18.53;41.01
73101;BME280;61288;53.446;-2.266;2023-04-08T09:56:26;102361.13;;;18.01;39.84
73101;BME280;61288;53.446;-2.266;2023-04-08T09:59:02;102365.00;;;17.52;40.35
73101;BME280;61288;53.446;-2.266;2023-04-08T10:01:36;102362.56;;;17.06;40.45
73101;BME280;61288;53.446;-2.266;2023-04-08T10:04:06;102359.09;;;17.68;40.69
73101;BME280;61288;53.446;-2.266;2023-04-08T10:06:33;102357.59;;;18.21;39.52
73101;BME280;61288;53.446;-2.266;2023-04-08T10:09:00;102355.44;;;18.85;38.82
73101;BME280;61288;53.446;-2.266;2023-04-08T10:11:27;102350.22;;;19.03;34.96
73101;BME280;61288;53.446;-2.266;2023-04-08T10:13:53;102352.50;;;18.74;36.56
73101;BME280;61288;53.446;-2.266;2023-04-08T10:16:20;102357.16;;;18.50;37.72
73101;BME280;61288;53.446;-2.266;2023-04-08T10:18:51;102354.91;;;18.23;37.35
73101;BME280;61288;53.446;-2.266;2023-04-08T10:21:38;102349.56;;;18.62;38.61
73101;BME280;61288;53.446;-2.266;2023-04-08T10:24:10;102350.38;;;18.63;37.52
73101;BME280;61288;53.446;-2.266;2023-04-08T10:26:44;102356.25;;;18.31;38.57
73101;BME280;61288;53.446;-2.266;2023-04-08T10:31:42;102342.03;;;18.55;37.59
73101;BME280;61288;53.446;-2.266;2023-04-08T10:34:15;102355.38;;;17.93;34.46
73101;BME280;61288;53.446;-2.266;2023-04-08T10:36:41;102346.88;;;17.87;34.84
73101;BME280;61288;53.446;-2.266;2023-04-08T10:39:07;102347.25;;;18.18;33.07
73101;BME280;61288;53.446;-2.266;2023-04-08T10:41:32;102342.59;;;18.06;34.31
73101;BME280;61288;53.446;-2.266;2023-04-08T10:43:58;102338.44;;;17.41;37.10
73101;BME280;61288;53.446;-2.266;2023-04-08T10:46:26;102335.88;;;17.39;38.69
73101;BME280;61288;53.446;-2.266;2023-04-08T10:48:59;102331.22;;;18.05;36.99
73101;BME280;61288;53.446;-2.266;2023-04-08T10:51:29;102327.09;;;17.20;38.27
73101;BME280;61288;53.446;-2.266;2023-04-08T10:54:05;102330.44;;;17.44;35.73
73101;BME280;61288;53.446;-2.266;2023-04-08T10:56:31;102325.88;;;17.08;34.99
73101;BME280;61288;53.446;-2.266;2023-04-08T10:58:57;102327.75;;;17.25;34.40
73101;BME280;61288;53.446;-2.266;2023-04-08T11:01:24;102327.94;;;17.41;35.71
73101;BME280;61288;53.446;-2.266;2023-04-08T11:03:51;102317.72;;;17.94;35.40
73101;BME280;61288;53.446;-2.266;2023-04-08T11:06:18;102326.31;;;17.78;33.52
73101;BME280;61288;53.446;-2.266;2023-04-08T11:08:44;102318.25;;;18.58;33.44
73101;BME280;61288;53.446;-2.266;2023-04-08T11:11:10;102319.88;;;18.24;33.52
73101;BME280;61288;53.446;-2.266;2023-04-08T11:13:40;102317.06;;;19.00;31.34
73101;BME280;61288;53.446;-2.266;2023-04-08T11:16:07;102314.53;;;18.99;33.50
73101;BME280;61288;53.446;-2.266;2023-04-08T11:18:39;102323.25;;;18.82;31.72
73101;BME280;61288;53.446;-2.266;2023-04-08T11:21:09;102319.59;;;18.84;32.41
73101;BME280;61288;53.446;-2.266;2023-04-08T11:23:35;102319.66;;;18.65;31.30
73101;BME280;61288;53.446;-2.266;2023-04-08T11:26:01;102310.06;;;18.64;31.11
73101;BME280;61288;53.446;-2.266;2023-04-08T11:28:28;102316.44;;;18.77;32.67
73101;BME280;61288;53.446;-2.266;2023-04-08T11:30:55;102314.75;;;18.40;33.42
73101;BME280;61288;53.446;-2.266;2023-04-08T11:33:24;102313.63;;;18.45;30.11
73101;BME280;61288;53.446;-2.266;2023-04-08T11:35:50;102311.19;;;18.41;32.14
73101;BME280;61288;53.446;-2.266;2023-04-08T11:38:16;102313.59;;;18.09;31.94
73101;BME280;61288;53.446;-2.266;2023-04-08T11:40:57;102312.94;;;18.03;34.35
73101;BME280;61288;53.446;-2.266;2023-04-08T11:43:23;102309.09;;;17.92;34.11
73101;BME280;61288;53.446;-2.266;2023-04-08T11:45:51;102298.53;;;17.74;33.10
73101;BME280;61288;53.446;-2.266;2023-04-08T11:48:17;102303.88;;;17.12;33.46
73101;BME280;61288;53.446;-2.266;2023-04-08T11:50:43;102308.22;;;17.11;32.95
73101;BME280;61288;53.446;-2.266;2023-04-08T11:53:19;102309.56;;;16.79;36.67
73101;BME280;61288;53.446;-2.266;2023-04-08T11:55:45;102306.59;;;16.86;34.56
73101;BME280;61288;53.446;-2.266;2023-04-08T11:58:11;102312.97;;;17.24;34.79
73101;BME280;61288;53.446;-2.266;2023-04-08T12:00:37;102310.19;;;17.06;35.09
73101;BME280;61288;53.446;-2.266;2023-04-08T12:03:03;102305.16;;;16.79;34.58
73101;BME280;61288;53.446;-2.266;2023-04-08T12:05:28;102306.06;;;17.42;34.93
73101;BME280;61288;53.446;-2.266;2023-04-08T12:07:53;102306.94;;;17.81;32.98
73101;BME280;61288;53.446;-2.266;2023-04-08T12:10:19;102301.38;;;17.88;34.11
73101;BME280;61288;53.446;-2.266;2023-04-08T12:12:45;102305.72;;;17.69;35.32
73101;BME280;61288;53.446;-2.266;2023-04-08T12:15:10;102309.41;;;17.65;35.40
73101;BME280;61288;53.446;-2.266;2023-04-08T12:17:36;102313.69;;;17.67;36.55
73101;BME280;61288;53.446;-2.266;2023-04-08T12:20:06;102307.69;;;17.44;33.88
73101;BME280;61288;53.446;-2.266;2023-04-08T12:22:32;102309.47;;;17.23;34.04
73101;BME280;61288;53.446;-2.266;2023-04-08T12:24:57;102298.44;;;16.94;34.19
73101;BME280;61288;53.446;-2.266;2023-04-08T12:27:23;102294.78;;;17.40;35.19
73101;BME280;61288;53.446;-2.266;2023-04-08T12:29:48;102304.56;;;17.36;33.54
73101;BME280;61288;53.446;-2.266;2023-04-08T12:32:15;102306.44;;;17.32;34.06
73101;BME280;61288;53.446;-2.266;2023-04-08T12:34:41;102305.16;;;17.22;34.06
73101;BME280;61288;53.446;-2.266;2023-04-08T12:37:06;102295.88;;;17.15;31.96
73101;BME280;61288;53.446;-2.266;2023-04-08T12:39:32;102304.22;;;17.44;32.06
73101;BME280;61288;53.446;-2.266;2023-04-08T12:41:57;102298.22;;;17.42;31.71
73101;BME280;61288;53.446;-2.266;2023-04-08T12:44:24;102297.22;;;17.44;32.52
73101;BME280;61288;53.446;-2.266;2023-04-08T12:46:49;102293.66;;;17.45;31.95
73101;BME280;61288;53.446;-2.266;2023-04-08T12:49:15;102285.28;;;17.58;32.91
73101;BME280;61288;53.446;-2.266;2023-04-08T12:51:40;102291.47;;;17.36;33.70
73101;BME280;61288;53.446;-2.266;2023-04-08T12:54:06;102289.09;;;17.70;34.20
73101;BME280;61288;53.446;-2.266;2023-04-08T12:56:32;102291.09;;;18.22;32.65
73101;BME280;61288;53.446;-2.266;2023-04-08T12:58:59;102290.66;;;18.31;31.04
73101;BME280;61288;53.446;-2.266;2023-04-08T13:01:26;102289.84;;;18.66;31.92
73101;BME280;61288;53.446;-2.266;2023-04-08T13:03:51;102282.00;;;18.84;32.15